Time;durP1;ratioP1;P1;durP2;ratioP2;P2;SDS_P1;SDS_P2;PMS_P1;PMS_P2;Temp;Humidity;BMP_temperature;BMP_pressure;BME280_temperature;BME280_humidity;BME280_pressure;Samples;Min_cycle;Max_cycle;Signal;HPM_P1;HPM_P2
2022/08/23 00:03:17;;;;;;;6.93;3.63;;;;;;;20.83;50.81;97930.16;8286090;28;20425;-73
2022/08/23 00:07:20;;;;;;;8.27;4.07;;;;;;;20.79;50.65;97932.22;8285941;28;20240;-73
2022/08/23 00:11:29;;;;;;;6.97;3.80;;;;;;;20.87;50.81;97924.47;8285964;28;20257;-73
2022/08/23 00:15:32;;;;;;;7.27;3.83;;;;;;;20.75;51.25;97920.25;8284279;28;20249;-73
2022/08/23 00:19:38;;;;;;;8.20;3.60;;;;;;;20.74;51.19;97925.69;8285561;28;20244;-73
2022/08/23 00:23:40;;;;;;;11.43;3.70;;;;;;;20.68;51.14;97921.78;8285437;28;20240;-73
2022/08/23 00:27:43;;;;;;;8.50;3.93;;;;;;;20.58;51.88;97916.47;8285193;28;20244;-73
2022/08/23 00:31:47;;;;;;;7.27;3.67;;;;;;;20.55;51.39;97905.38;8284955;28;20657;-73
2022/08/23 00:35:51;;;;;;;5.10;3.77;;;;;;;20.60;51.70;97908.44;8284545;28;20233;-73
2022/08/23 00:39:54;;;;;;;6.60;3.70;;;;;;;20.56;51.81;97907.88;8284663;28;20239;-73
2022/08/23 00:48:29;;;;;;;8.63;3.87;;;;;;;20.43;51.73;97921.22;8186298;28;20244;-73
2022/08/23 00:52:38;;;;;;;4.40;3.47;;;;;;;20.48;51.84;97916.38;8284609;28;20230;-73
2022/08/23 00:56:41;;;;;;;7.30;3.57;;;;;;;20.30;52.39;97923.25;8284202;28;20524;-73
2022/08/23 01:00:44;;;;;;;7.13;3.87;;;;;;;20.28;52.29;97930.44;8284266;28;20237;-73
2022/08/23 01:04:51;;;;;;;7.63;3.83;;;;;;;20.24;52.08;97932.47;8283741;28;20244;-73
2022/08/23 01:08:58;;;;;;;5.03;3.57;;;;;;;20.19;52.45;97931.19;8283771;28;20249;-73
2022/08/23 01:13:07;;;;;;;5.67;3.53;;;;;;;20.17;52.32;97938.38;8283966;28;20430;-73
2022/08/23 01:17:13;;;;;;;7.50;3.57;;;;;;;20.23;52.51;97943.13;8283446;28;20541;-73
2022/08/23 01:21:20;;;;;;;7.77;3.53;;;;;;;20.19;52.45;97936.47;8283586;28;20239;-73
2022/08/23 01:25:27;;;;;;;5.00;3.63;;;;;;;20.03;52.83;97931.63;8283370;28;20324;-73
2022/08/23 01:29:30;;;;;;;6.97;3.63;;;;;;;20.01;52.70;97944.94;8283186;28;20230;-73
2022/08/23 01:33:33;;;;;;;7.30;3.57;;;;;;;19.99;52.92;97933.72;8283470;28;20523;-73
2022/08/23 01:37:36;;;;;;;5.43;3.37;;;;;;;19.92;52.97;97940.44;8283273;28;20237;-73
2022/08/23 01:41:41;;;;;;;5.40;3.50;;;;;;;19.87;53.45;97946.06;8282969;28;20237;-73
2022/08/23 01:45:44;;;;;;;6.10;3.57;;;;;;;19.88;52.88;97947.75;8282832;28;20244;-73
2022/08/23 01:49:46;;;;;;;6.20;3.70;;;;;;;19.86;53.17;97940.97;8282929;28;20241;-73
2022/08/23 01:53:49;;;;;;;7.20;3.80;;;;;;;19.84;53.48;97942.88;8282377;28;20419;-73
2022/08/23 01:57:55;;;;;;;5.20;3.60;;;;;;;19.85;53.27;97945.34;8282621;28;20246;-73
2022/08/23 02:01:58;;;;;;;4.37;3.50;;;;;;;19.86;53.45;97954.09;8282454;28;20243;-73
2022/08/23 02:06:01;;;;;;;8.90;3.70;;;;;;;19.91;53.18;97947.50;8282445;28;20546;-73
2022/08/23 02:10:05;;;;;;;6.83;3.60;;;;;;;19.81;53.20;97951.81;8282421;28;20225;-73
2022/08/23 02:14:11;;;;;;;4.83;3.87;;;;;;;19.78;53.07;97946.84;8281989;28;20416;-73
2022/08/23 02:18:14;;;;;;;10.67;4.30;;;;;;;19.80;52.79;97952.81;8282098;28;20244;-73
2022/08/23 02:22:18;;;;;;;7.07;3.90;;;;;;;19.75;52.97;97949.72;8281827;28;20241;-73
2022/08/23 02:26:22;;;;;;;5.63;3.93;;;;;;;19.68;53.13;97945.88;8281974;28;20236;-73
2022/08/23 02:30:34;;;;;;;8.07;4.20;;;;;;;19.51;53.76;97950.75;8282120;28;20603;-73
2022/08/23 02:34:38;;;;;;;5.97;3.90;;;;;;;19.56;53.34;97955.59;8281988;28;20381;-73
2022/08/23 02:38:41;;;;;;;6.03;3.93;;;;;;;19.43;53.47;97953.13;8283217;28;20531;-73
2022/08/23 02:42:43;;;;;;;8.70;3.93;;;;;;;19.43;53.70;97955.75;8288689;28;20516;-73
2022/08/23 02:46:48;;;;;;;5.90;3.53;;;;;;;19.34;53.62;97962.59;8288311;28;20408;-73
2022/08/23 02:50:51;;;;;;;7.63;3.90;;;;;;;19.28;53.54;97957.81;8287864;28;20422;-73
2022/08/23 02:54:54;;;;;;;8.20;3.33;;;;;;;19.36;53.73;97969.50;8288267;28;20420;-73
2022/08/23 02:59:00;;;;;;;6.87;4.20;;;;;;;19.29;53.65;97964.75;8287921;28;20245;-74
2022/08/23 03:03:05;;;;;;;10.50;4.00;;;;;;;19.26;53.66;97958.91;8287875;28;20238;-73
2022/08/23 03:07:08;;;;;;;8.87;4.00;;;;;;;19.24;53.46;97953.78;8287860;28;20249;-73
2022/08/23 03:11:12;;;;;;;5.87;3.80;;;;;;;19.17;53.68;97957.00;8287803;28;20238;-74
2022/08/23 03:15:15;;;;;;;6.23;3.90;;;;;;;19.08;53.86;97956.81;8287409;28;20244;-73
2022/08/23 03:19:20;;;;;;;6.40;3.70;;;;;;;19.02;54.04;97959.06;8287178;28;20237;-73
2022/08/23 03:23:23;;;;;;;5.37;3.90;;;;;;;19.00;54.46;97953.09;8287097;28;20248;-74
2022/08/23 03:27:26;;;;;;;9.13;4.10;;;;;;;19.00;54.24;97946.09;8287411;28;20253;-74
2022/08/23 03:31:29;;;;;;;8.00;4.40;;;;;;;18.92;54.45;97956.34;8287135;28;20261;-74
2022/08/23 03:35:34;;;;;;;5.77;4.30;;;;;;;18.85;54.74;97950.75;8287080;28;20244;-73
2022/08/23 03:39:37;;;;;;;5.00;4.40;;;;;;;18.82;54.80;97955.41;8286580;28;20237;-74
2022/08/23 03:43:40;;;;;;;7.33;4.20;;;;;;;18.74;54.99;97951.53;8286700;28;20563;-73
2022/08/23 03:47:43;;;;;;;6.50;4.30;;;;;;;18.72;54.99;97944.75;8286409;28;20244;-73
2022/08/23 03:51:47;;;;;;;7.97;4.33;;;;;;;18.77;55.16;97960.94;8285987;28;20424;-73
2022/08/23 03:55:51;;;;;;;7.03;5.03;;;;;;;18.75;55.52;97961.09;8285732;28;20230;-73
2022/08/23 03:59:54;;;;;;;9.07;4.80;;;;;;;18.88;54.83;97958.34;8286118;28;20243;-73
2022/08/23 04:03:58;;;;;;;8.57;4.77;;;;;;;18.83;54.75;97955.28;8286027;28;20510;-73
2022/08/23 04:08:08;;;;;;;9.93;4.70;;;;;;;18.84;54.70;97954.31;8285858;28;20237;-73
2022/08/23 04:12:11;;;;;;;7.40;4.43;;;;;;;18.74;55.36;97958.59;8285564;28;20317;-73
2022/08/23 04:16:19;;;;;;;6.77;4.20;;;;;;;18.67;55.24;97965.25;8285711;28;20249;-73
2022/08/23 04:20:22;;;;;;;7.13;4.23;;;;;;;18.67;55.40;97973.94;8285649;28;20233;-73
2022/08/23 04:24:26;;;;;;;8.37;4.40;;;;;;;18.67;55.16;97983.63;8285287;28;20532;-73
2022/08/23 04:28:29;;;;;;;6.27;3.90;;;;;;;18.59;54.97;97986.84;8285266;28;20238;-73
2022/08/23 04:32:32;;;;;;;7.77;4.60;;;;;;;18.58;55.17;97979.91;8285203;28;20236;-73
2022/08/23 04:36:40;;;;;;;8.23;4.40;;;;;;;18.63;55.35;97985.63;8285167;28;20238;-73
2022/08/23 04:45:13;;;;;;;7.30;4.47;;;;;;;18.54;54.86;97994.22;8285029;28;20555;-73
2022/08/23 04:49:16;;;;;;;6.07;4.43;;;;;;;18.44;55.27;97988.00;8284781;28;20233;-73
2022/08/23 04:53:19;;;;;;;7.57;4.60;;;;;;;18.50;55.48;97995.41;8284462;28;20240;-73
2022/08/23 04:57:24;;;;;;;9.60;5.00;;;;;;;18.52;55.29;97989.09;8284328;28;20233;-73
2022/08/23 05:01:27;;;;;;;7.53;4.43;;;;;;;18.53;55.48;97998.63;8283737;28;20301;-73
2022/08/23 05:05:30;;;;;;;7.20;4.10;;;;;;;18.51;55.51;98011.03;8284242;28;20554;-73
2022/08/23 05:09:33;;;;;;;6.90;4.70;;;;;;;18.71;55.44;98019.97;8284207;28;20629;-73
2022/08/23 05:13:37;;;;;;;7.17;4.13;;;;;;;18.85;55.03;98018.09;8284084;28;20309;-73
2022/08/23 05:17:40;;;;;;;7.20;4.13;;;;;;;18.90;54.72;98029.91;8283808;28;20400;-73
2022/08/23 05:21:44;;;;;;;10.00;4.67;;;;;;;18.97;54.94;98032.91;8283537;28;20430;-73
2022/08/23 05:25:49;;;;;;;6.00;4.60;;;;;;;18.91;55.22;98031.59;8283398;28;20237;-73
2022/08/23 05:29:56;;;;;;;6.93;4.60;;;;;;;19.03;55.22;98029.81;8283077;28;20237;-73
2022/08/23 05:33:59;;;;;;;8.27;4.40;;;;;;;19.22;54.62;98036.25;8283230;28;20244;-73
2022/08/23 05:38:03;;;;;;;6.93;4.33;;;;;;;19.32;54.67;98035.41;8283097;28;20241;-73
2022/08/23 05:42:07;;;;;;;8.00;4.27;;;;;;;19.43;54.18;98031.91;8282939;28;20233;-73
2022/08/23 05:46:14;;;;;;;7.13;4.50;;;;;;;19.37;54.57;98042.09;8283035;28;20543;-73
2022/08/23 05:50:21;;;;;;;9.23;4.20;;;;;;;19.73;53.39;98036.53;8282830;28;20248;-73
2022/08/23 05:54:24;;;;;;;9.00;4.40;;;;;;;19.84;53.53;98050.63;8282822;28;20545;-73
2022/08/23 05:58:26;;;;;;;9.97;4.50;;;;;;;20.01;53.08;98055.31;8282524;28;20238;-73
2022/08/23 06:02:31;;;;;;;7.70;4.37;;;;;;;20.27;52.94;98053.16;8282442;28;20240;-73
2022/08/23 06:06:35;;;;;;;8.33;4.20;;;;;;;20.34;52.55;98053.50;8282284;28;20252;-73
2022/08/23 06:10:39;;;;;;;6.57;4.00;;;;;;;20.55;52.13;98058.75;8282277;28;20237;-73
2022/08/23 06:14:44;;;;;;;7.73;4.10;;;;;;;20.75;51.11;98064.16;8282230;28;20242;-76
2022/08/23 06:18:48;;;;;;;6.73;3.90;;;;;;;20.94;51.31;98055.53;8281787;28;20244;-73
2022/08/23 06:22:51;;;;;;;7.00;4.17;;;;;;;20.92;50.63;98060.94;8281427;28;20544;-73
2022/08/23 06:26:54;;;;;;;5.73;3.70;;;;;;;21.12;50.96;98071.56;8281431;28;20238;-74
2022/08/23 06:30:57;;;;;;;7.60;3.87;;;;;;;21.21;50.87;98068.13;8281897;28;20260;-74
2022/08/23 06:35:01;;;;;;;8.60;4.07;;;;;;;21.43;50.08;98072.38;8281765;28;20236;-73
2022/08/23 06:39:27;;;;;;;9.43;4.57;;;;;;;20.95;50.12;98071.22;8281489;28;20241;-74
2022/08/23 06:43:31;;;;;;;5.83;3.87;;;;;;;21.47;49.39;98079.91;8281800;28;20230;-74
2022/08/23 06:47:34;;;;;;;9.07;4.17;;;;;;;21.70;49.91;98089.41;8281128;28;20237;-74
2022/08/23 06:51:40;;;;;;;8.13;4.50;;;;;;;21.78;49.52;98084.28;8281437;28;20232;-74
2022/08/23 06:55:42;;;;;;;7.63;4.10;;;;;;;21.94;50.10;98081.94;8281446;28;20237;-74
2022/08/23 06:59:45;;;;;;;11.53;4.30;;;;;;;22.15;49.17;98078.38;8280854;28;20242;-74
2022/08/23 07:03:48;;;;;;;7.07;4.40;;;;;;;22.17;48.56;98074.59;8280910;28;20237;-74
2022/08/23 07:07:53;;;;;;;9.00;4.40;;;;;;;22.33;48.49;98063.56;8281220;28;20542;-74
2022/08/23 07:11:56;;;;;;;7.70;4.40;;;;;;;22.52;47.81;98077.66;8281331;28;20239;-74
2022/08/23 07:15:59;;;;;;;6.40;3.63;;;;;;;22.62;46.53;98083.78;8281208;28;20243;-74
2022/08/23 07:20:03;;;;;;;6.90;3.70;;;;;;;22.77;46.45;98085.00;8281037;28;20409;-74
2022/08/23 07:24:08;;;;;;;6.80;3.80;;;;;;;22.92;45.84;98088.00;8281028;28;20532;-74
2022/08/23 07:28:12;;;;;;;11.23;3.80;;;;;;;23.06;45.22;98099.97;8287553;28;20264;-74
2022/08/23 07:32:14;;;;;;;8.10;3.70;;;;;;;23.18;45.34;98084.78;8287097;28;20236;-74
2022/08/23 07:36:22;;;;;;;6.43;3.50;;;;;;;23.33;45.57;98088.59;8286736;28;20237;-74
2022/08/23 07:40:26;;;;;;;5.63;3.43;;;;;;;23.10;44.36;98090.78;8286867;28;20249;-74
2022/08/23 07:44:30;;;;;;;9.93;3.13;;;;;;;23.49;44.43;98089.78;8286888;28;20295;-74
2022/08/23 07:48:34;;;;;;;4.53;2.70;;;;;;;23.77;42.45;98098.53;8286740;28;20245;-74
2022/08/23 07:52:55;;;;;;;4.20;2.40;;;;;;;23.89;40.88;98092.06;8285859;28;20229;-73
2022/08/23 07:57:00;;;;;;;7.97;3.03;;;;;;;23.08;42.10;98100.66;8286519;28;20233;-74
2022/08/23 08:01:11;;;;;;;4.63;2.47;;;;;;;23.44;41.42;98095.50;8285980;28;20241;-74
2022/08/23 08:05:14;;;;;;;6.90;2.60;;;;;;;24.29;41.17;98098.75;8285730;28;20233;-74
2022/08/23 08:09:23;;;;;;;7.77;2.67;;;;;;;23.60;40.56;98100.16;8286040;28;20405;-73
2022/08/23 08:13:27;;;;;;;5.73;2.20;;;;;;;24.36;39.40;98105.09;8286053;28;20242;-73
2022/08/23 08:17:30;;;;;;;5.00;2.30;;;;;;;24.81;39.49;98105.13;8286103;28;20240;-72
2022/08/23 08:21:33;;;;;;;7.20;2.50;;;;;;;24.46;39.59;98112.13;8286706;28;20238;-74
2022/08/23 08:25:37;;;;;;;3.43;2.30;;;;;;;25.51;38.67;98113.88;8285409;28;20244;-73
2022/08/23 08:29:42;;;;;;;5.47;2.63;;;;;;;25.53;37.53;98106.56;8285661;28;20237;-73
2022/08/23 08:33:45;;;;;;;6.97;2.30;;;;;;;25.78;37.04;98106.66;8285278;28;20519;-73
2022/08/23 08:37:48;;;;;;;6.20;2.20;;;;;;;25.79;36.42;98113.63;8283017;28;20415;-73
2022/08/23 08:41:59;;;;;;;6.53;2.00;;;;;;;26.16;36.84;98111.56;8285531;28;20236;-73
2022/08/23 08:46:13;;;;;;;5.27;2.20;;;;;;;25.26;36.48;98112.91;8285063;28;20232;-73
2022/08/23 08:50:20;;;;;;;4.37;2.10;;;;;;;26.70;34.91;98112.78;8284321;28;20367;-73
2022/08/23 08:54:26;;;;;;;5.93;1.90;;;;;;;26.87;34.15;98108.28;8284661;28;20243;-73
2022/08/23 08:58:38;;;;;;;30.43;3.50;;;;;;;27.54;34.06;98106.31;8284276;28;20248;-73
2022/08/23 09:02:43;;;;;;;3.00;2.00;;;;;;;27.82;32.79;98112.84;8284358;28;20244;-72
2022/08/23 09:06:53;;;;;;;4.33;2.00;;;;;;;28.40;31.66;98115.97;8283891;28;20239;-75
2022/08/23 09:11:02;;;;;;;3.03;1.73;;;;;;;28.49;31.41;98107.94;8283510;28;20249;-73
2022/08/23 09:15:14;;;;;;;4.03;1.90;;;;;;;28.11;30.95;98105.22;8283815;28;20247;-74
2022/08/23 09:19:20;;;;;;;2.33;1.60;;;;;;;28.85;32.97;98113.47;8283655;28;20263;-73
2022/08/23 09:23:26;;;;;;;4.37;1.80;;;;;;;29.01;29.94;98110.63;8283419;28;20240;-73
2022/08/23 09:27:28;;;;;;;5.37;1.80;;;;;;;29.02;31.65;98108.81;8283644;28;20238;-73
2022/08/23 09:31:40;;;;;;;7.13;2.03;;;;;;;29.54;30.34;98112.44;8283501;28;20251;-74
2022/08/23 09:36:03;;;;;;;5.63;2.03;;;;;;;28.48;29.73;98120.41;8282908;28;20236;-73
2022/08/23 09:40:17;;;;;;;6.90;2.10;;;;;;;29.25;28.75;98114.09;8282885;28;20244;-73
2022/08/23 09:44:32;;;;;;;4.43;1.80;;;;;;;29.87;29.30;98110.19;8283114;28;20258;-73
2022/08/23 09:48:38;;;;;;;4.47;1.70;;;;;;;29.99;28.66;98113.22;8282428;28;20241;-74
2022/08/23 09:52:43;;;;;;;17.00;2.50;;;;;;;30.19;29.23;98108.06;8282552;28;20241;-74
2022/08/23 09:56:53;;;;;;;3.30;1.50;;;;;;;30.54;28.26;98105.53;8282362;28;20234;-73
2022/08/23 10:01:08;;;;;;;3.53;1.50;;;;;;;30.71;27.32;98098.91;8281992;28;20245;-73
2022/08/23 10:05:18;;;;;;;4.67;1.60;;;;;;;30.62;26.12;98093.91;8282479;28;20242;-73
2022/08/23 10:09:27;;;;;;;6.63;1.53;;;;;;;30.98;27.37;98091.13;8282367;28;20306;-73
2022/08/23 10:13:30;;;;;;;3.07;1.50;;;;;;;31.16;26.29;98096.75;8282297;28;20237;-73
2022/08/23 10:17:40;;;;;;;3.27;1.53;;;;;;;31.41;26.77;98093.59;8282221;28;20293;-73
2022/08/23 10:21:47;;;;;;;5.20;1.90;;;;;;;31.27;26.49;98094.56;8282060;28;20246;-73
2022/08/23 10:25:55;;;;;;;4.13;1.40;;;;;;;31.70;24.96;98089.88;8281519;28;20234;-73
2022/08/23 10:30:05;;;;;;;3.43;1.47;;;;;;;31.83;25.87;98083.69;8282060;28;20234;-73
2022/08/23 10:34:18;;;;;;;5.53;1.60;;;;;;;31.88;25.19;98077.75;8282132;28;20434;-73
2022/08/23 10:38:43;;;;;;;2.80;1.67;;;;;;;32.01;25.64;98085.00;8281859;28;20540;-73
2022/08/23 10:42:57;;;;;;;2.80;1.80;;;;;;;32.02;24.68;98078.63;8281843;28;20241;-73
2022/08/23 10:47:08;;;;;;;3.57;1.50;;;;;;;32.26;25.43;98080.75;8281211;28;20244;-73
2022/08/23 10:51:15;;;;;;;3.83;1.83;;;;;;;32.35;24.71;98070.66;8281821;28;20244;-74
2022/08/23 10:55:43;;;;;;;3.63;1.70;;;;;;;32.40;24.65;98081.56;8281799;28;20240;-74
2022/08/23 10:59:49;;;;;;;3.57;1.70;;;;;;;31.95;23.78;98060.69;8282817;28;20245;-74
2022/08/23 11:04:01;;;;;;;4.13;1.77;;;;;;;31.98;23.31;98058.63;8287461;28;20266;-74
2022/08/23 11:08:06;;;;;;;3.60;1.70;;;;;;;32.59;23.68;98053.16;8287600;28;20231;-74
2022/08/23 11:12:19;;;;;;;4.90;1.60;;;;;;;32.73;23.65;98052.13;8287608;28;20317;-74
2022/08/23 11:16:37;;;;;;;8.23;1.40;;;;;;;32.98;22.75;98050.66;8287566;28;20242;-74
2022/08/23 11:21:03;;;;;;;2.90;1.50;;;;;;;33.10;22.31;98036.38;8287247;28;20259;-74
2022/08/23 11:25:06;;;;;;;6.87;1.27;;;;;;;32.98;22.00;98046.09;8286864;28;20244;-74
2022/08/23 11:29:31;;;;;;;2.83;1.20;;;;;;;33.06;22.64;98048.53;8287381;28;20230;-76
2022/08/23 11:33:43;;;;;;;2.50;1.43;;;;;;;33.08;21.70;98042.97;8280586;28;20435;-73
2022/08/23 11:37:53;;;;;;;6.00;1.27;;;;;;;33.30;22.30;98044.38;8287008;28;20238;-74
2022/08/23 11:42:03;;;;;;;3.37;1.10;;;;;;;33.26;22.16;98051.22;8286078;28;20335;-74
2022/08/23 11:46:30;;;;;;;1.73;1.10;;;;;;;33.44;21.25;98042.44;8286757;28;20234;-74
2022/08/23 11:50:43;;;;;;;3.77;1.30;;;;;;;33.39;21.01;98036.06;8281529;28;20405;-74
2022/08/23 11:55:06;;;;;;;4.00;2.67;;;;;;;33.34;20.95;98034.03;8286405;28;20240;-74
2022/08/23 11:59:34;;;;;;;3.57;1.30;;;;;;;33.31;20.10;98037.13;8285922;28;20236;-74
2022/08/23 12:03:54;;;;;;;2.23;1.20;;;;;;;33.49;20.68;98039.97;8286216;28;20240;-74
2022/08/23 12:08:32;;;;;;;1.90;1.07;;;;;;;33.47;20.82;98041.19;8285774;28;20228;-74
2022/08/23 12:12:40;;;;;;;3.43;1.10;;;;;;;33.23;21.26;98038.19;8285573;28;20367;-73
2022/08/23 12:16:48;;;;;;;2.70;1.30;;;;;;;33.42;20.87;98032.97;8285332;28;20457;-73
2022/08/23 12:20:59;;;;;;;5.37;1.30;;;;;;;33.56;21.11;98033.72;8285401;28;20438;-74
2022/08/23 12:25:07;;;;;;;5.23;1.83;;;;;;;33.65;21.08;98030.59;8285397;28;20241;-73
2022/08/23 12:29:25;;;;;;;4.77;1.20;;;;;;;33.67;20.61;98033.91;8285456;28;20241;-74
2022/08/23 12:33:34;;;;;;;10.30;1.50;;;;;;;33.67;20.24;98031.22;8285267;28;20236;-74
2022/08/23 12:37:41;;;;;;;3.67;1.20;;;;;;;33.53;19.33;98032.31;8285190;28;20235;-74
2022/08/23 12:41:54;;;;;;;2.50;1.23;;;;;;;33.54;19.33;98025.06;8284836;28;20245;-74
2022/08/23 12:46:00;;;;;;;1.98;1.10;;;;;;;33.67;19.81;98017.78;8284584;28;20233;-74
2022/08/23 12:50:08;;;;;;;2.43;1.10;;;;;;;33.54;20.17;98019.69;8284689;28;20304;-73
2022/08/23 12:54:15;;;;;;;1.63;1.13;;;;;;;33.28;20.06;98013.41;8284577;28;20231;-77
2022/08/23 12:58:27;;;;;;;4.47;0.90;;;;;;;33.13;20.46;98004.78;8284397;28;20264;-74
2022/08/23 13:02:37;;;;;;;1.77;1.00;;;;;;;33.35;19.90;98006.16;8283973;28;20246;-74
2022/08/23 13:06:43;;;;;;;2.17;1.10;;;;;;;33.38;19.90;98002.25;8284158;28;20237;-76
2022/08/23 13:10:46;;;;;;;4.17;1.00;;;;;;;33.53;19.83;98000.09;8284110;28;20248;-74
2022/08/23 13:14:51;;;;;;;3.78;1.13;;;;;;;33.53;20.08;97992.03;8283355;28;20238;-73
2022/08/23 13:18:56;;;;;;;1.63;0.90;;;;;;;33.61;20.28;97999.84;8283599;28;20298;-74
2022/08/23 13:23:01;;;;;;;1.57;0.97;;;;;;;33.57;19.38;97993.25;8282837;28;20242;-74
2022/08/23 13:27:17;;;;;;;5.03;1.20;;;;;;;33.50;19.37;97992.47;8283537;28;20251;-74
2022/08/23 13:31:20;;;;;;;1.80;0.90;;;;;;;33.46;19.62;97988.56;8283625;28;20243;-74
2022/08/23 13:35:34;;;;;;;3.93;1.03;;;;;;;33.30;19.21;97987.19;8283335;28;20236;-74
2022/08/23 13:39:37;;;;;;;1.23;0.73;;;;;;;33.44;19.57;97987.97;8282885;28;20347;-74
2022/08/23 13:43:46;;;;;;;2.87;1.00;;;;;;;32.91;20.07;97981.72;8283163;28;20437;-74
2022/08/23 13:47:51;;;;;;;3.50;0.90;;;;;;;33.19;20.33;97983.31;8282563;28;20233;-73
2022/08/23 13:52:13;;;;;;;1.23;0.80;;;;;;;33.26;19.82;97975.22;8282880;28;20239;-73
2022/08/23 13:56:39;;;;;;;3.13;0.87;;;;;;;32.92;19.28;97969.97;8282586;28;20233;-74
2022/08/23 14:00:42;;;;;;;2.07;1.00;;;;;;;33.06;19.53;97969.94;8282417;28;20316;-74
2022/08/23 14:04:57;;;;;;;1.10;0.80;;;;;;;32.91;20.01;97962.97;8282467;28;20475;-74
2022/08/23 14:09:01;;;;;;;2.63;0.77;;;;;;;32.81;20.08;97965.28;8282510;28;20231;-73
2022/08/23 14:13:05;;;;;;;1.00;0.70;;;;;;;32.62;19.98;97963.47;8282252;28;20255;-73
2022/08/23 14:17:08;;;;;;;4.63;0.70;;;;;;;32.70;20.07;97961.38;8282397;28;20254;-74
2022/08/23 14:21:12;;;;;;;0.90;0.70;;;;;;;32.52;20.62;97955.84;8282062;28;20244;-74
2022/08/23 14:25:17;;;;;;;1.67;1.13;;;;;;;32.59;20.69;97953.97;8281757;28;20234;-74
2022/08/23 14:29:20;;;;;;;0.93;0.80;;;;;;;32.63;21.09;97957.88;8282042;28;20241;-74
2022/08/23 14:33:24;;;;;;;2.00;0.90;;;;;;;32.57;20.32;97957.91;8281457;28;20510;-74
2022/08/23 14:37:27;;;;;;;2.03;0.80;;;;;;;32.51;20.94;97957.66;8281619;28;20237;-74
2022/08/23 14:41:52;;;;;;;2.87;1.07;;;;;;;32.45;22.07;97963.88;8281181;28;20243;-73
2022/08/23 14:45:55;;;;;;;2.50;0.90;;;;;;;32.39;21.26;97956.69;8281695;28;20549;-74
2022/08/23 14:49:58;;;;;;;2.10;1.03;;;;;;;32.19;20.57;97959.34;8281417;28;20236;-72
2022/08/23 14:54:03;;;;;;;1.40;0.80;;;;;;;32.20;21.04;97960.19;8281550;28;20437;-74
2022/08/23 14:58:08;;;;;;;2.30;0.80;;;;;;;32.03;21.35;97962.47;8281712;28;20236;-72
2022/08/23 15:02:12;;;;;;;6.67;1.40;;;;;;;32.04;22.19;97961.41;8281495;28;20250;-73
2022/08/23 15:06:16;;;;;;;1.43;1.20;;;;;;;31.88;21.83;97963.44;8281336;28;20244;-73
2022/08/23 15:10:21;;;;;;;3.73;0.97;;;;;;;31.79;22.10;97962.00;8281242;28;20237;-74
2022/08/23 15:14:45;;;;;;;1.50;0.97;;;;;;;31.75;22.41;97960.75;8280872;28;20232;-74
2022/08/23 15:18:51;;;;;;;1.63;0.90;;;;;;;31.59;22.01;97958.44;8280547;28;20243;-73
2022/08/23 15:22:55;;;;;;;2.50;1.07;;;;;;;31.56;22.60;97957.84;8281026;28;20249;-74
2022/08/23 15:26:58;;;;;;;1.93;1.03;;;;;;;31.26;22.18;97957.31;8280877;28;20241;-75
2022/08/23 15:31:05;;;;;;;1.23;0.87;;;;;;;31.28;22.80;97959.78;8280532;28;20426;-75
2022/08/23 15:35:09;;;;;;;1.80;1.10;;;;;;;31.17;23.01;97953.19;8280671;28;20436;-75
2022/08/23 15:39:12;;;;;;;1.57;1.00;;;;;;;31.12;23.57;97951.09;8280889;28;20236;-75
2022/08/23 15:43:14;;;;;;;1.50;1.00;;;;;;;30.99;24.13;97951.84;8280569;28;20409;-75
2022/08/23 15:47:21;;;;;;;3.10;1.10;;;;;;;30.86;24.52;97949.09;8284571;28;20243;-75
2022/08/23 15:51:24;;;;;;;1.93;1.10;;;;;;;30.85;24.49;97947.44;8286535;28;20251;-75
2022/08/23 15:55:29;;;;;;;2.47;1.10;;;;;;;30.68;24.00;97946.94;8286265;28;20240;-75
2022/08/23 15:59:34;;;;;;;2.57;1.10;;;;;;;30.50;24.40;97946.63;8286199;28;20230;-75
2022/08/23 16:03:41;;;;;;;4.00;1.00;;;;;;;30.19;24.00;97945.16;8285568;28;20239;-76
2022/08/23 16:07:44;;;;;;;2.70;0.90;;;;;;;30.05;25.09;97946.91;8285573;28;20439;-77
2022/08/23 16:11:47;;;;;;;4.07;1.20;;;;;;;29.80;24.38;97955.31;8285862;28;20231;-76
2022/08/23 16:15:50;;;;;;;1.87;1.10;;;;;;;29.66;25.13;97950.81;8285383;28;20232;-76
2022/08/23 16:19:54;;;;;;;3.63;0.90;;;;;;;29.65;25.43;97949.19;8285532;28;20231;-75
2022/08/23 16:23:57;;;;;;;5.00;1.03;;;;;;;29.52;25.50;97952.53;8285240;28;20239;-77
2022/08/23 16:28:01;;;;;;;2.20;1.20;;;;;;;29.32;25.94;97946.16;8285516;28;20259;-75
2022/08/23 16:32:05;;;;;;;3.80;0.93;;;;;;;29.24;25.34;97950.63;8284850;28;20238;-76
2022/08/23 16:36:10;;;;;;;3.00;0.90;;;;;;;29.16;25.81;97948.03;8284862;28;20244;-75
2022/08/23 16:40:14;;;;;;;4.50;1.13;;;;;;;29.09;26.19;97947.09;8285139;28;20436;-76
2022/08/23 16:44:17;;;;;;;3.67;1.10;;;;;;;28.97;25.79;97943.28;8284897;28;20241;-75
2022/08/23 16:48:20;;;;;;;1.47;1.10;;;;;;;28.89;26.52;97946.88;8284963;28;20243;-76
2022/08/23 16:52:25;;;;;;;2.23;1.20;;;;;;;28.77;26.86;97956.31;8284455;28;20262;-77
2022/08/23 16:56:37;;;;;;;1.40;0.80;;;;;;;28.64;26.65;97949.81;8283974;28;20424;-77
2022/08/23 17:00:40;;;;;;;2.17;1.00;;;;;;;28.52;27.40;97947.78;8283894;28;20236;-76
2022/08/23 17:04:43;;;;;;;4.30;1.17;;;;;;;28.38;27.12;97946.75;8284217;28;20240;-75
2022/08/23 17:08:50;;;;;;;1.40;1.00;;;;;;;28.21;27.18;97949.53;8283679;28;20228;-76
2022/08/23 17:12:55;;;;;;;2.63;0.80;;;;;;;28.11;28.03;97964.97;8283945;28;20240;-74
2022/08/23 17:16:58;;;;;;;4.83;0.93;;;;;;;28.04;28.08;97961.34;8283726;28;20243;-74
2022/08/23 17:21:02;;;;;;;3.90;0.90;;;;;;;27.96;28.56;97969.41;8283476;28;20299;-77
2022/08/23 17:25:08;;;;;;;1.37;0.93;;;;;;;27.86;28.84;97969.63;8283785;28;20532;-75
2022/08/23 17:29:11;;;;;;;1.77;1.10;;;;;;;27.68;29.12;97968.09;8283320;28;20420;-77
2022/08/23 17:33:14;;;;;;;1.53;1.10;;;;;;;27.53;29.21;97977.84;8283426;28;20251;-76
2022/08/23 17:37:19;;;;;;;2.57;1.10;;;;;;;27.43;29.67;97978.03;8283487;28;20233;-74
2022/08/23 17:41:24;;;;;;;5.63;1.17;;;;;;;27.42;29.56;97984.38;8283139;28;20262;-74
2022/08/23 17:45:27;;;;;;;1.47;0.83;;;;;;;27.34;29.75;97980.94;8283180;28;20449;-74
2022/08/23 17:49:30;;;;;;;2.50;1.30;;;;;;;27.25;30.04;97988.94;8282480;28;20237;-73
2022/08/23 17:53:33;;;;;;;1.80;1.30;;;;;;;27.18;30.56;97995.09;8282915;28;20575;-76
2022/08/23 17:57:38;;;;;;;5.03;1.23;;;;;;;27.19;30.51;97999.41;8282715;28;20235;-74
2022/08/23 18:01:42;;;;;;;4.67;1.03;;;;;;;26.92;31.24;98004.16;8282498;28;20237;-76
2022/08/23 18:05:45;;;;;;;5.23;1.20;;;;;;;26.94;31.24;98011.97;8282356;28;20238;-73
2022/08/23 18:09:48;;;;;;;2.27;1.00;;;;;;;26.89;31.69;98009.84;8281849;28;20241;-74
2022/08/23 18:13:52;;;;;;;2.43;1.20;;;;;;;26.74;31.98;98016.84;8282237;28;20432;-73
2022/08/23 18:17:55;;;;;;;1.73;1.27;;;;;;;26.67;31.85;98022.84;8282395;28;20241;-73
2022/08/23 18:22:00;;;;;;;1.67;1.00;;;;;;;26.56;32.57;98028.47;8281882;28;20235;-72
2022/08/23 18:26:05;;;;;;;1.40;1.20;;;;;;;26.52;32.82;98032.44;8282074;28;20245;-75
2022/08/23 18:30:11;;;;;;;2.20;1.10;;;;;;;26.48;32.87;98047.91;8281857;28;20225;-72
2022/08/23 18:34:16;;;;;;;2.97;1.30;;;;;;;26.31;33.57;98052.38;8281787;28;20242;-72
2022/08/23 18:38:19;;;;;;;3.53;1.00;;;;;;;26.09;34.02;98053.84;8281226;28;20255;-76
2022/08/23 18:42:23;;;;;;;1.90;1.03;;;;;;;26.15;34.12;98055.03;8281529;28;20544;-78
2022/08/23 18:46:27;;;;;;;4.50;2.30;;;;;;;26.13;34.18;98060.47;8281510;28;20243;-73
2022/08/23 18:50:35;;;;;;;3.17;1.40;;;;;;;26.10;34.47;98065.28;8281527;28;20235;-74
2022/08/23 18:54:38;;;;;;;4.80;1.37;;;;;;;26.20;34.78;98070.44;8281774;28;20450;-73
2022/08/23 18:58:41;;;;;;;2.57;1.20;;;;;;;26.13;34.84;98075.59;8281368;28;20240;-73
2022/08/23 19:02:45;;;;;;;7.40;1.20;;;;;;;26.11;35.45;98077.56;8281359;28;20271;-73
2022/08/23 19:06:48;;;;;;;6.40;1.50;;;;;;;26.06;35.98;98090.50;8280730;28;20236;-73
2022/08/23 19:10:56;;;;;;;2.27;1.13;;;;;;;25.98;35.77;98093.16;8281343;28;20540;-73
2022/08/23 19:14:58;;;;;;;5.70;1.40;;;;;;;26.01;36.08;98098.97;8281340;28;20247;-73
2022/08/23 19:19:03;;;;;;;3.63;1.50;;;;;;;25.93;35.99;98105.06;8280938;28;20252;-73
2022/08/23 19:23:06;;;;;;;5.47;2.03;;;;;;;25.85;36.83;98114.78;8285772;28;20248;-73
2022/08/23 19:27:09;;;;;;;7.43;1.97;;;;;;;25.86;37.53;98122.59;8287508;28;20253;-73
2022/08/23 19:31:13;;;;;;;1.53;1.27;;;;;;;25.75;37.55;98122.88;8287312;28;20228;-73